sensor_id;sensor_type;location;lat;lon;timestamp;pressure;altitude;pressure_sealevel;temperature
48628;BMP280;34424;52.234;6.500;2023-06-24T00:03:23;102343;;;14.82
48628;BMP280;34424;52.234;6.500;2023-06-24T00:08:23;102341.2;;;14.76
48628;BMP280;34424;52.234;6.500;2023-06-24T00:13:23;102341.9;;;14.71
48628;BMP280;34424;52.234;6.500;2023-06-24T00:18:23;102347.8;;;14.62
48628;BMP280;34424;52.234;6.500;2023-06-24T00:23:23;102349.3;;;14.48
48628;BMP280;34424;52.234;6.500;2023-06-24T00:28:23;102343.6;;;14.4
48628;BMP280;34424;52.234;6.500;2023-06-24T00:33:23;102344.6;;;14.35
48628;BMP280;34424;52.234;6.500;2023-06-24T00:38:23;102346.3;;;14.28
48628;BMP280;34424;52.234;6.500;2023-06-24T00:43:23;102340.5;;;14.19
48628;BMP280;34424;52.234;6.500;2023-06-24T00:48:23;102340.3;;;14.11
48628;BMP280;34424;52.234;6.500;2023-06-24T00:53:23;102335.9;;;14.08
48628;BMP280;34424;52.234;6.500;2023-06-24T00:58:23;102346.1;;;14.06
48628;BMP280;34424;52.234;6.500;2023-06-24T01:03:23;102348.7;;;14.06
48628;BMP280;34424;52.234;6.500;2023-06-24T01:08:23;102346.8;;;14.08
48628;BMP280;34424;52.234;6.500;2023-06-24T01:13:23;102342.3;;;14.04
48628;BMP280;34424;52.234;6.500;2023-06-24T01:18:24;102345.4;;;13.97
48628;BMP280;34424;52.234;6.500;2023-06-24T01:28:26;102332.5;;;13.96
48628;BMP280;34424;52.234;6.500;2023-06-24T01:33:24;102335.3;;;13.98
48628;BMP280;34424;52.234;6.500;2023-06-24T01:38:24;102332.3;;;14.04
48628;BMP280;34424;52.234;6.500;2023-06-24T01:43:23;102328.2;;;14.15
48628;BMP280;34424;52.234;6.500;2023-06-24T01:48:24;102323.2;;;14.33
48628;BMP280;34424;52.234;6.500;2023-06-24T01:53:23;102324;;;14.43
48628;BMP280;34424;52.234;6.500;2023-06-24T01:58:23;102328;;;14.47
48628;BMP280;34424;52.234;6.500;2023-06-24T02:03:23;102323.1;;;14.51
48628;BMP280;34424;52.234;6.500;2023-06-24T02:08:23;102315.9;;;14.54
48628;BMP280;34424;52.234;6.500;2023-06-24T02:13:23;102315.3;;;14.46
48628;BMP280;34424;52.234;6.500;2023-06-24T02:18:23;102311.4;;;14.29
48628;BMP280;34424;52.234;6.500;2023-06-24T02:23:23;102316.3;;;14.14
48628;BMP280;34424;52.234;6.500;2023-06-24T02:28:23;102316.5;;;14.01
48628;BMP280;34424;52.234;6.500;2023-06-24T02:33:23;102318.3;;;13.89
48628;BMP280;34424;52.234;6.500;2023-06-24T02:38:23;102317.9;;;13.8
48628;BMP280;34424;52.234;6.500;2023-06-24T02:43:23;102315.7;;;13.77
48628;BMP280;34424;52.234;6.500;2023-06-24T02:48:23;102316.5;;;13.73
48628;BMP280;34424;52.234;6.500;2023-06-24T02:53:23;102314.2;;;13.66
48628;BMP280;34424;52.234;6.500;2023-06-24T02:58:23;102308.5;;;13.6
48628;BMP280;34424;52.234;6.500;2023-06-24T03:03:23;102316.4;;;13.56
48628;BMP280;34424;52.234;6.500;2023-06-24T03:08:23;102330.6;;;13.56
48628;BMP280;34424;52.234;6.500;2023-06-24T03:13:23;102321.7;;;13.59
48628;BMP280;34424;52.234;6.500;2023-06-24T03:18:23;102322;;;13.65
48628;BMP280;34424;52.234;6.500;2023-06-24T03:23:23;102314.9;;;13.65
48628;BMP280;34424;52.234;6.500;2023-06-24T03:28:23;102316;;;13.65
48628;BMP280;34424;52.234;6.500;2023-06-24T03:33:23;102317.6;;;13.65
48628;BMP280;34424;52.234;6.500;2023-06-24T03:38:23;102316.8;;;13.68
48628;BMP280;34424;52.234;6.500;2023-06-24T03:43:23;102321.1;;;13.71
48628;BMP280;34424;52.234;6.500;2023-06-24T03:48:23;102323.8;;;13.75
48628;BMP280;34424;52.234;6.500;2023-06-24T03:53:23;102327.6;;;13.79
48628;BMP280;34424;52.234;6.500;2023-06-24T03:58:23;102326.2;;;13.84
48628;BMP280;34424;52.234;6.500;2023-06-24T04:03:23;102339;;;13.89
48628;BMP280;34424;52.234;6.500;2023-06-24T04:08:23;102340.9;;;13.94
48628;BMP280;34424;52.234;6.500;2023-06-24T04:13:23;102347.4;;;14.02
48628;BMP280;34424;52.234;6.500;2023-06-24T04:18:23;102348;;;14.14
48628;BMP280;34424;52.234;6.500;2023-06-24T04:23:23;102346.8;;;14.29
48628;BMP280;34424;52.234;6.500;2023-06-24T04:28:23;102341.3;;;14.47
48628;BMP280;34424;52.234;6.500;2023-06-24T04:33:23;102347.9;;;14.64
48628;BMP280;34424;52.234;6.500;2023-06-24T04:38:23;102348.9;;;14.8
48628;BMP280;34424;52.234;6.500;2023-06-24T04:43:23;102347.7;;;14.97
48628;BMP280;34424;52.234;6.500;2023-06-24T04:48:23;102347.7;;;15.07
48628;BMP280;34424;52.234;6.500;2023-06-24T04:53:23;102347;;;15.28
48628;BMP280;34424;52.234;6.500;2023-06-24T04:58:23;102343.6;;;15.57
48628;BMP280;34424;52.234;6.500;2023-06-24T05:03:23;102343.1;;;16.6
48628;BMP280;34424;52.234;6.500;2023-06-24T05:08:23;102339.8;;;17.85
48628;BMP280;34424;52.234;6.500;2023-06-24T05:13:23;102341.7;;;19.09
48628;BMP280;34424;52.234;6.500;2023-06-24T05:18:23;102339.3;;;19.76
48628;BMP280;34424;52.234;6.500;2023-06-24T05:23:23;102349.7;;;20.26
48628;BMP280;34424;52.234;6.500;2023-06-24T05:28:23;102355.6;;;20.86
48628;BMP280;34424;52.234;6.500;2023-06-24T05:33:23;102352.9;;;21.75
48628;BMP280;34424;52.234;6.500;2023-06-24T05:38:23;102347.5;;;22.44
48628;BMP280;34424;52.234;6.500;2023-06-24T05:43:23;102347;;;22.63
48628;BMP280;34424;52.234;6.500;2023-06-24T05:48:23;102352.5;;;23.07
48628;BMP280;34424;52.234;6.500;2023-06-24T05:53:23;102350.5;;;23.33
48628;BMP280;34424;52.234;6.500;2023-06-24T05:58:23;102348;;;23.28
48628;BMP280;34424;52.234;6.500;2023-06-24T06:03:23;102353.1;;;24.48
48628;BMP280;34424;52.234;6.500;2023-06-24T06:08:23;102354.3;;;23.71
48628;BMP280;34424;52.234;6.500;2023-06-24T06:13:23;102351.5;;;24.41
48628;BMP280;34424;52.234;6.500;2023-06-24T06:18:23;102344.7;;;24.8
48628;BMP280;34424;52.234;6.500;2023-06-24T06:23:23;102344.2;;;24.59
48628;BMP280;34424;52.234;6.500;2023-06-24T06:28:23;102341.3;;;25.4
48628;BMP280;34424;52.234;6.500;2023-06-24T06:33:23;102342.4;;;25.22
48628;BMP280;34424;52.234;6.500;2023-06-24T06:38:23;102338.1;;;26.15
48628;BMP280;34424;52.234;6.500;2023-06-24T06:43:23;102342.2;;;25.99
48628;BMP280;34424;52.234;6.500;2023-06-24T06:48:23;102347;;;26.53
48628;BMP280;34424;52.234;6.500;2023-06-24T06:53:23;102343.6;;;26.54
48628;BMP280;34424;52.234;6.500;2023-06-24T06:58:23;102345;;;27.46
48628;BMP280;34424;52.234;6.500;2023-06-24T07:03:23;102346.3;;;27.42
48628;BMP280;34424;52.234;6.500;2023-06-24T07:08:23;102347.6;;;27.78
48628;BMP280;34424;52.234;6.500;2023-06-24T07:13:23;102352.7;;;27.76
48628;BMP280;34424;52.234;6.500;2023-06-24T07:18:24;102353.8;;;28.47
48628;BMP280;34424;52.234;6.500;2023-06-24T07:23:24;102344;;;27.5
48628;BMP280;34424;52.234;6.500;2023-06-24T07:28:23;102363.5;;;27.56
48628;BMP280;34424;52.234;6.500;2023-06-24T07:33:24;102372.1;;;28.5
48628;BMP280;34424;52.234;6.500;2023-06-24T07:38:23;102373.9;;;29.04
48628;BMP280;34424;52.234;6.500;2023-06-24T07:43:23;102372.4;;;29.63
48628;BMP280;34424;52.234;6.500;2023-06-24T07:48:24;102370.8;;;29.07
48628;BMP280;34424;52.234;6.500;2023-06-24T07:53:24;102365;;;29.29
48628;BMP280;34424;52.234;6.500;2023-06-24T07:58:24;102359.9;;;29.57
48628;BMP280;34424;52.234;6.500;2023-06-24T08:03:24;102350.6;;;30.77
48628;BMP280;34424;52.234;6.500;2023-06-24T08:09:23;102353.5;;;32.1
48628;BMP280;34424;52.234;6.500;2023-06-24T08:14:23;102356.8;;;31.51
48628;BMP280;34424;52.234;6.500;2023-06-24T08:19:23;102358.7;;;32.17
48628;BMP280;34424;52.234;6.500;2023-06-24T08:24:23;102352.1;;;31.91
48628;BMP280;34424;52.234;6.500;2023-06-24T08:29:23;102350.1;;;31.7
48628;BMP280;34424;52.234;6.500;2023-06-24T08:34:23;102353.2;;;32.3
48628;BMP280;34424;52.234;6.500;2023-06-24T08:39:23;102352.3;;;31.16
48628;BMP280;34424;52.234;6.500;2023-06-24T08:44:23;102349.2;;;31.47
48628;BMP280;34424;52.234;6.500;2023-06-24T08:49:25;102347.9;;;32.78
48628;BMP280;34424;52.234;6.500;2023-06-24T08:54:23;102353.6;;;31.54
48628;BMP280;34424;52.234;6.500;2023-06-24T08:59:23;102345.7;;;32.14
48628;BMP280;34424;52.234;6.500;2023-06-24T09:04:23;102343.5;;;32.39
48628;BMP280;34424;52.234;6.500;2023-06-24T09:09:24;102347.3;;;32.61
48628;BMP280;34424;52.234;6.500;2023-06-24T09:14:24;102348.5;;;32.99
48628;BMP280;34424;52.234;6.500;2023-06-24T09:19:24;102347.2;;;32.74
48628;BMP280;34424;52.234;6.500;2023-06-24T09:24:23;102342.4;;;33.03
48628;BMP280;34424;52.234;6.500;2023-06-24T09:29:23;102335.6;;;32.69
48628;BMP280;34424;52.234;6.500;2023-06-24T09:34:23;102329.6;;;32.04
48628;BMP280;34424;52.234;6.500;2023-06-24T09:39:24;102320.3;;;33.31
48628;BMP280;34424;52.234;6.500;2023-06-24T09:44:23;102324;;;32.53
48628;BMP280;34424;52.234;6.500;2023-06-24T09:49:23;102325.4;;;32.99
48628;BMP280;34424;52.234;6.500;2023-06-24T09:54:24;102328;;;32.86
48628;BMP280;34424;52.234;6.500;2023-06-24T09:59:23;102317.5;;;32.91
48628;BMP280;34424;52.234;6.500;2023-06-24T10:04:23;102313.3;;;32.49
48628;BMP280;34424;52.234;6.500;2023-06-24T10:09:23;102313.6;;;32.78
48628;BMP280;34424;52.234;6.500;2023-06-24T10:14:23;102315;;;32.95
48628;BMP280;34424;52.234;6.500;2023-06-24T10:19:23;102308.2;;;33.26
48628;BMP280;34424;52.234;6.500;2023-06-24T10:24:32;102302;;;32.7
48628;BMP280;34424;52.234;6.500;2023-06-24T10:29:32;102303.7;;;33.35
48628;BMP280;34424;52.234;6.500;2023-06-24T10:34:24;102304.7;;;32.44
48628;BMP280;34424;52.234;6.500;2023-06-24T10:44:23;102296.8;;;33.5
48628;BMP280;34424;52.234;6.500;2023-06-24T10:49:23;102302.9;;;32.78
48628;BMP280;34424;52.234;6.500;2023-06-24T10:54:23;102298.9;;;33.42
48628;BMP280;34424;52.234;6.500;2023-06-24T10:59:23;102291.1;;;32.59
48628;BMP280;34424;52.234;6.500;2023-06-24T11:04:23;102281.8;;;31.45
48628;BMP280;34424;52.234;6.500;2023-06-24T11:09:23;102276.1;;;32.15
48628;BMP280;34424;52.234;6.500;2023-06-24T11:14:23;102276.9;;;32.84
48628;BMP280;34424;52.234;6.500;2023-06-24T11:19:23;102272.1;;;33
48628;BMP280;34424;52.234;6.500;2023-06-24T11:24:23;102274.8;;;33.31
48628;BMP280;34424;52.234;6.500;2023-06-24T11:29:24;102269.8;;;32.95
48628;BMP280;34424;52.234;6.500;2023-06-24T11:34:24;102269.7;;;32.77
48628;BMP280;34424;52.234;6.500;2023-06-24T11:39:24;102262.8;;;32.92
48628;BMP280;34424;52.234;6.500;2023-06-24T11:44:24;102269.5;;;32.32
48628;BMP280;34424;52.234;6.500;2023-06-24T11:49:23;102258.5;;;32.39
48628;BMP280;34424;52.234;6.500;2023-06-24T11:54:23;102253.2;;;32.65
48628;BMP280;34424;52.234;6.500;2023-06-24T11:59:25;102250.3;;;32.26
48628;BMP280;34424;52.234;6.500;2023-06-24T12:04:26;102248.2;;;33.14
48628;BMP280;34424;52.234;6.500;2023-06-24T12:09:24;102246.8;;;32.41
48628;BMP280;34424;52.234;6.500;2023-06-24T12:14:23;102242.2;;;32.25
48628;BMP280;34424;52.234;6.500;2023-06-24T12:19:23;102240;;;32.46
48628;BMP280;34424;52.234;6.500;2023-06-24T12:24:23;102240.9;;;32.44
48628;BMP280;34424;52.234;6.500;2023-06-24T12:29:23;102235.7;;;32.22
48628;BMP280;34424;52.234;6.500;2023-06-24T12:34:24;102237.3;;;32.44
48628;BMP280;34424;52.234;6.500;2023-06-24T12:39:23;102233;;;32.29
48628;BMP280;34424;52.234;6.500;2023-06-24T12:44:24;102230.7;;;32.35
48628;BMP280;34424;52.234;6.500;2023-06-24T12:49:23;102225.2;;;31.83
48628;BMP280;34424;52.234;6.500;2023-06-24T12:54:24;102226.1;;;31.54
48628;BMP280;34424;52.234;6.500;2023-06-24T12:59:24;102217.6;;;30.36
48628;BMP280;34424;52.234;6.500;2023-06-24T13:04:24;102218;;;30.33
48628;BMP280;34424;52.234;6.500;2023-06-24T13:09:24;102218.6;;;30.9
48628;BMP280;34424;52.234;6.500;2023-06-24T13:14:24;102214.9;;;30.5
48628;BMP280;34424;52.234;6.500;2023-06-24T13:19:24;102207.7;;;30.53
48628;BMP280;34424;52.234;6.500;2023-06-24T13:24:24;102205.2;;;30.17
48628;BMP280;34424;52.234;6.500;2023-06-24T13:29:24;102199.5;;;31.14
48628;BMP280;34424;52.234;6.500;2023-06-24T13:34:24;102202.6;;;30.63
48628;BMP280;34424;52.234;6.500;2023-06-24T13:39:24;102204.4;;;31.35
48628;BMP280;34424;52.234;6.500;2023-06-24T13:44:24;102198.9;;;32.24
48628;BMP280;34424;52.234;6.500;2023-06-24T13:49:24;102190.8;;;32.87
48628;BMP280;34424;52.234;6.500;2023-06-24T13:54:24;102192.8;;;32.55
48628;BMP280;34424;52.234;6.500;2023-06-24T13:59:24;102185.1;;;32.14
48628;BMP280;34424;52.234;6.500;2023-06-24T14:04:24;102179.3;;;32.27
48628;BMP280;34424;52.234;6.500;2023-06-24T14:09:24;102185.7;;;32.05
48628;BMP280;34424;52.234;6.500;2023-06-24T14:14:24;102181.3;;;32.46
48628;BMP280;34424;52.234;6.500;2023-06-24T14:19:24;102183.2;;;32.4
48628;BMP280;34424;52.234;6.500;2023-06-24T14:24:24;102171.4;;;32.16
48628;BMP280;34424;52.234;6.500;2023-06-24T14:29:24;102175.3;;;31.95
48628;BMP280;34424;52.234;6.500;2023-06-24T14:34:24;102174.8;;;31.25
48628;BMP280;34424;52.234;6.500;2023-06-24T14:39:24;102167;;;31.42
48628;BMP280;34424;52.234;6.500;2023-06-24T14:44:24;102167.5;;;31.65
48628;BMP280;34424;52.234;6.500;2023-06-24T14:49:24;102162.2;;;31.34
48628;BMP280;34424;52.234;6.500;2023-06-24T14:54:24;102159.1;;;30.84
48628;BMP280;34424;52.234;6.500;2023-06-24T14:59:24;102155.6;;;31.54
48628;BMP280;34424;52.234;6.500;2023-06-24T15:04:24;102148.1;;;31.28
48628;BMP280;34424;52.234;6.500;2023-06-24T15:09:24;102149.5;;;31.51
48628;BMP280;34424;52.234;6.500;2023-06-24T15:14:24;102143.9;;;31.86
48628;BMP280;34424;52.234;6.500;2023-06-24T15:19:24;102144.6;;;32.1
48628;BMP280;34424;52.234;6.500;2023-06-24T15:24:24;102138.9;;;32.05
48628;BMP280;34424;52.234;6.500;2023-06-24T15:29:25;102138.5;;;32.23
48628;BMP280;34424;52.234;6.500;2023-06-24T15:34:24;102136.9;;;32.41
48628;BMP280;34424;52.234;6.500;2023-06-24T15:39:24;102133.3;;;32.27
48628;BMP280;34424;52.234;6.500;2023-06-24T15:44:24;102129.3;;;31.75
48628;BMP280;34424;52.234;6.500;2023-06-24T15:49:24;102123.4;;;32.18
48628;BMP280;34424;52.234;6.500;2023-06-24T15:54:24;102124.6;;;31.83
48628;BMP280;34424;52.234;6.500;2023-06-24T15:59:24;102120.6;;;30.98
48628;BMP280;34424;52.234;6.500;2023-06-24T16:04:24;102124.8;;;31.4
48628;BMP280;34424;52.234;6.500;2023-06-24T16:09:24;102115.8;;;31.79
48628;BMP280;34424;52.234;6.500;2023-06-24T16:14:24;102112;;;30.99
48628;BMP280;34424;52.234;6.500;2023-06-24T16:19:24;102113.8;;;31.61
48628;BMP280;34424;52.234;6.500;2023-06-24T16:24:24;102104.2;;;31.79
48628;BMP280;34424;52.234;6.500;2023-06-24T16:29:24;102104.2;;;31.13
48628;BMP280;34424;52.234;6.500;2023-06-24T16:34:24;102096.7;;;31.85
48628;BMP280;34424;52.234;6.500;2023-06-24T16:39:24;102093.4;;;31.51
48628;BMP280;34424;52.234;6.500;2023-06-24T16:44:24;102095.7;;;31.2
48628;BMP280;34424;52.234;6.500;2023-06-24T16:49:24;102086.4;;;31.7
48628;BMP280;34424;52.234;6.500;2023-06-24T16:54:24;102085;;;31.45
48628;BMP280;34424;52.234;6.500;2023-06-24T16:59:24;102082.8;;;30.53
48628;BMP280;34424;52.234;6.500;2023-06-24T17:04:24;102076;;;30.32
48628;BMP280;34424;52.234;6.500;2023-06-24T17:09:24;102077.4;;;30.46
48628;BMP280;34424;52.234;6.500;2023-06-24T17:14:24;102071.9;;;30.14
48628;BMP280;34424;52.234;6.500;2023-06-24T17:19:24;102077;;;29.69
48628;BMP280;34424;52.234;6.500;2023-06-24T17:24:24;102073.6;;;28.79
48628;BMP280;34424;52.234;6.500;2023-06-24T17:29:24;102072.4;;;27.94
48628;BMP280;34424;52.234;6.500;2023-06-24T17:34:24;102074.1;;;28.36
48628;BMP280;34424;52.234;6.500;2023-06-24T17:39:24;102076.6;;;28.38
48628;BMP280;34424;52.234;6.500;2023-06-24T17:44:24;102071.3;;;28.89
48628;BMP280;34424;52.234;6.500;2023-06-24T17:49:24;102072.6;;;28.06
48628;BMP280;34424;52.234;6.500;2023-06-24T17:54:24;102069.6;;;28.14
48628;BMP280;34424;52.234;6.500;2023-06-24T17:59:24;102068.3;;;27.86
48628;BMP280;34424;52.234;6.500;2023-06-24T18:04:24;102070.2;;;27.12
48628;BMP280;34424;52.234;6.500;2023-06-24T18:09:24;102066.5;;;26.66
48628;BMP280;34424;52.234;6.500;2023-06-24T18:14:24;102066.1;;;26.21
48628;BMP280;34424;52.234;6.500;2023-06-24T18:19:24;102054.8;;;25.93
48628;BMP280;34424;52.234;6.500;2023-06-24T18:24:24;102052.5;;;25.86
48628;BMP280;34424;52.234;6.500;2023-06-24T18:29:24;102054.6;;;25.59
48628;BMP280;34424;52.234;6.500;2023-06-24T18:34:24;102055;;;25.45
48628;BMP280;34424;52.234;6.500;2023-06-24T18:39:24;102054.3;;;25.34
48628;BMP280;34424;52.234;6.500;2023-06-24T18:44:24;102050.9;;;25.12
48628;BMP280;34424;52.234;6.500;2023-06-24T18:49:24;102043.9;;;24.97
48628;BMP280;34424;52.234;6.500;2023-06-24T18:54:24;102044.8;;;24.79
48628;BMP280;34424;52.234;6.500;2023-06-24T18:59:24;102037.5;;;24.55
48628;BMP280;34424;52.234;6.500;2023-06-24T19:04:24;102037.5;;;24.34
48628;BMP280;34424;52.234;6.500;2023-06-24T19:09:24;102031.2;;;24.17
48628;BMP280;34424;52.234;6.500;2023-06-24T19:14:24;102036.9;;;23.98
48628;BMP280;34424;52.234;6.500;2023-06-24T19:19:24;102031.3;;;23.73
48628;BMP280;34424;52.234;6.500;2023-06-24T19:24:24;102032.7;;;23.47
48628;BMP280;34424;52.234;6.500;2023-06-24T19:29:24;102030.9;;;23.23
48628;BMP280;34424;52.234;6.500;2023-06-24T19:34:24;102033.1;;;22.93
48628;BMP280;34424;52.234;6.500;2023-06-24T19:39:24;102038.4;;;22.69
48628;BMP280;34424;52.234;6.500;2023-06-24T19:44:24;102033.6;;;22.48
48628;BMP280;34424;52.234;6.500;2023-06-24T19:49:24;102038.8;;;22.31
48628;BMP280;34424;52.234;6.500;2023-06-24T19:54:24;102042.9;;;22.13
48628;BMP280;34424;52.234;6.500;2023-06-24T19:59:24;102047.8;;;21.95
48628;BMP280;34424;52.234;6.500;2023-06-24T20:04:24;102044.1;;;21.72
48628;BMP280;34424;52.234;6.500;2023-06-24T20:09:24;102040.3;;;21.52
48628;BMP280;34424;52.234;6.500;2023-06-24T20:14:24;102043;;;21.36
48628;BMP280;34424;52.234;6.500;2023-06-24T20:19:24;102042.8;;;21.16
48628;BMP280;34424;52.234;6.500;2023-06-24T20:24:24;102037.1;;;20.99
48628;BMP280;34424;52.234;6.500;2023-06-24T20:29:24;102036.9;;;20.81
48628;BMP280;34424;52.234;6.500;2023-06-24T20:34:24;102039;;;20.65
48628;BMP280;34424;52.234;6.500;2023-06-24T20:39:24;102035.7;;;20.48
48628;BMP280;34424;52.234;6.500;2023-06-24T20:44:24;102035.5;;;20.3
48628;BMP280;34424;52.234;6.500;2023-06-24T20:49:24;102029;;;20.14
48628;BMP280;34424;52.234;6.500;2023-06-24T20:54:24;102026.3;;;20.01
48628;BMP280;34424;52.234;6.500;2023-06-24T20:59:24;102028.6;;;19.91
48628;BMP280;34424;52.234;6.500;2023-06-24T21:04:24;102023.9;;;19.82
48628;BMP280;34424;52.234;6.500;2023-06-24T21:09:24;102028.1;;;19.72
48628;BMP280;34424;52.234;6.500;2023-06-24T21:14:24;102031.9;;;19.6
48628;BMP280;34424;52.234;6.500;2023-06-24T21:19:24;102028.6;;;19.48
48628;BMP280;34424;52.234;6.500;2023-06-24T21:24:24;102031.3;;;19.36
48628;BMP280;34424;52.234;6.500;2023-06-24T21:29:24;102036.4;;;19.25
48628;BMP280;34424;52.234;6.500;2023-06-24T21:34:24;102035.2;;;19.16
48628;BMP280;34424;52.234;6.500;2023-06-24T21:39:24;102034.3;;;19.09
48628;BMP280;34424;52.234;6.500;2023-06-24T21:44:24;102032.3;;;19.1
48628;BMP280;34424;52.234;6.500;2023-06-24T21:49:24;102030.2;;;19.14
48628;BMP280;34424;52.234;6.500;2023-06-24T21:54:24;102030.4;;;19.26
48628;BMP280;34424;52.234;6.500;2023-06-24T21:59:24;102032.2;;;19.31
48628;BMP280;34424;52.234;6.500;2023-06-24T22:04:24;102029.4;;;19.28
48628;BMP280;34424;52.234;6.500;2023-06-24T22:09:24;102026.6;;;19.23
48628;BMP280;34424;52.234;6.500;2023-06-24T22:14:24;102028.7;;;19.16
48628;BMP280;34424;52.234;6.500;2023-06-24T22:19:24;102030.1;;;19.08
48628;BMP280;34424;52.234;6.500;2023-06-24T22:24:24;102033.1;;;18.95
48628;BMP280;34424;52.234;6.500;2023-06-24T22:29:24;102026.1;;;18.87
48628;BMP280;34424;52.234;6.500;2023-06-24T22:34:24;102027.8;;;18.83
48628;BMP280;34424;52.234;6.500;2023-06-24T22:39:24;102025.5;;;18.72
48628;BMP280;34424;52.234;6.500;2023-06-24T22:44:24;102023.5;;;18.61
48628;BMP280;34424;52.234;6.500;2023-06-24T22:49:24;102023.3;;;18.51
48628;BMP280;34424;52.234;6.500;2023-06-24T22:54:24;102032;;;18.44
48628;BMP280;34424;52.234;6.500;2023-06-24T22:59:24;102023.4;;;18.4
48628;BMP280;34424;52.234;6.500;2023-06-24T23:04:24;102022.8;;;18.36
48628;BMP280;34424;52.234;6.500;2023-06-24T23:09:24;102015.9;;;18.28
48628;BMP280;34424;52.234;6.500;2023-06-24T23:14:24;102018.4;;;18.2
48628;BMP280;34424;52.234;6.500;2023-06-24T23:19:24;102013.9;;;18.11
48628;BMP280;34424;52.234;6.500;2023-06-24T23:24:24;102011.8;;;18.12
48628;BMP280;34424;52.234;6.500;2023-06-24T23:29:25;102009.1;;;18.06
48628;BMP280;34424;52.234;6.500;2023-06-24T23:34:24;101997.9;;;17.96
48628;BMP280;34424;52.234;6.500;2023-06-24T23:39:24;101995.5;;;17.89
48628;BMP280;34424;52.234;6.500;2023-06-24T23:44:24;101988.3;;;17.8
48628;BMP280;34424;52.234;6.500;2023-06-24T23:49:24;101988;;;17.8
48628;BMP280;34424;52.234;6.500;2023-06-24T23:54:24;101983.5;;;17.69
48628;BMP280;34424;52.234;6.500;2023-06-24T23:59:24;101983;;;17.61
